CheckWX is a tool to help pilots better visualize weather data.  It is not intended as a substitute for an official pre-flight weather briefing.

21:29:45 UTC

KLAX TAF
Los Angeles International Airport
Los Angeles, California, USA
KLAX 231741Z 2318/2424 24009KT P6SM SCT028 SCT035 FM232100 27012KT P6SM SKC FM240400 27007KT P6SM SKC FM240800 VRB03KT P6SM OVC022 FM241700 VRB03KT P6SM FEW030 FM242000 26012KT P6SM SKC

May-23@
18:00 UTC

May-23 @ 18:00 UTC

May-23@
21:00 UTC

May-23 @ 21:00 UTC

TAF KLAX 231741Z 2318/2424 24009KT P6SM SCT028 SCT035

Expired

Wind
  • 240° at 9 KTS
Cloud Levels
  • Scattered at 2,800' AGL
  • Scattered at 3,500' AGL

May-23@
21:00 UTC

May-23 @ 21:00 UTC

May-24@
04:00 UTC

May-24 @ 04:00 UTC

FM232100 27012KT P6SM SKC

Expired

Wind
  • 270° at 12 KTS
Cloud Levels
  • Clear skies

May-24@
04:00 UTC

May-24 @ 04:00 UTC

May-24@
08:00 UTC

May-24 @ 08:00 UTC

FM240400 27007KT P6SM SKC

Expired

Wind
  • 270° at 7 KTS
Cloud Levels
  • Clear skies

May-24@
08:00 UTC

May-24 @ 08:00 UTC

May-24@
17:00 UTC

May-24 @ 17:00 UTC

FM240800 VRB03KT P6SM OVC022

Expired

Wind
  • Variable at 3 KTS
Cloud Levels
  • Overcast at 2,200' AGL

May-24@
17:00 UTC

May-24 @ 17:00 UTC

May-24@
20:00 UTC

May-24 @ 20:00 UTC

FM241700 VRB03KT P6SM FEW030

Expired

Wind
  • Variable at 3 KTS
Cloud Levels
  • Few at 3,000' AGL

May-24@
20:00 UTC

May-24 @ 20:00 UTC

May-25@
00:00 UTC

May-25 @ 00:00 UTC

FM242000 26012KT P6SM SKC

From

From Standard forecast or significant change

Wind
  • 260° at 12 KTS
Cloud Levels
  • Clear skies